createdAt,value
2023-02-03T00:02:15.924Z,7.38
2023-02-03T00:04:52.443Z,11.85
2023-02-03T00:07:29.292Z,11.52
2023-02-03T00:10:09.537Z,9.55
2023-02-03T00:12:45.536Z,12.50
2023-02-03T00:15:27.121Z,13.85
2023-02-03T00:18:07.134Z,13.90
2023-02-03T00:20:43.618Z,19.40
2023-02-03T00:23:19.790Z,16.58
2023-02-03T00:28:32.221Z,28.33
2023-02-03T00:31:08.273Z,25.13
2023-02-03T00:33:50.264Z,26.05
2023-02-03T00:36:30.488Z,25.42
2023-02-03T00:39:08.231Z,23.80
2023-02-03T00:41:44.691Z,22.00
2023-02-03T00:44:21.819Z,23.52
2023-02-03T00:47:02.865Z,23.83
2023-02-03T00:49:43.286Z,23.45
2023-02-03T00:52:19.257Z,26.88
2023-02-03T00:54:58.187Z,27.60
2023-02-03T00:57:33.938Z,19.40
2023-02-03T01:00:17.049Z,21.90
2023-02-03T01:02:51.768Z,19.60
2023-02-03T01:05:32.427Z,21.10
2023-02-03T01:08:08.176Z,26.00
2023-02-03T01:10:44.678Z,17.58
2023-02-03T01:13:20.368Z,21.60
2023-02-03T01:15:55.741Z,19.73
2023-02-03T01:18:37.111Z,19.13
2023-02-03T01:21:20.316Z,19.85
2023-02-03T01:24:00.674Z,16.83
2023-02-03T01:26:37.738Z,17.25
2023-02-03T01:29:14.831Z,21.67
2023-02-03T01:31:52.719Z,20.55
2023-02-03T01:34:26.522Z,16.83
2023-02-03T01:37:10.328Z,16.98
2023-02-03T01:39:50.629Z,20.90
2023-02-03T01:42:26.525Z,16.10
2023-02-03T01:45:01.901Z,18.42
2023-02-03T01:47:41.052Z,17.05
2023-02-03T01:50:18.439Z,18.55
2023-02-03T01:53:01.561Z,18.80
2023-02-03T01:55:48.236Z,17.95
2023-02-03T01:58:22.987Z,17.92
2023-02-03T02:01:01.527Z,21.33
2023-02-03T02:03:40.231Z,19.85
2023-02-03T02:06:16.612Z,20.75
2023-02-03T02:08:56.278Z,17.40
2023-02-03T02:11:34.875Z,19.45
2023-02-03T02:14:16.124Z,19.85
2023-02-03T02:16:53.320Z,19.70
2023-02-03T02:19:39.845Z,20.15
2023-02-03T02:22:14.118Z,19.38
2023-02-03T02:25:14.320Z,16.70
2023-02-03T02:28:01.699Z,14.10
2023-02-03T02:30:54.987Z,17.23
2023-02-03T02:33:38.321Z,20.48
2023-02-03T02:36:22.040Z,14.57
2023-02-03T02:39:00.711Z,14.65
2023-02-03T02:41:42.097Z,15.60
2023-02-03T02:44:16.401Z,16.37
2023-02-03T02:46:53.208Z,19.23
2023-02-03T02:49:33.591Z,17.98
2023-02-03T02:52:09.394Z,17.67
2023-02-03T02:54:48.552Z,18.50
2023-02-03T02:57:25.683Z,19.92
2023-02-03T03:00:01.916Z,14.68
2023-02-03T03:02:41.412Z,18.27
2023-02-03T03:05:21.086Z,21.02
2023-02-03T03:08:02.853Z,16.95
2023-02-03T03:10:40.485Z,17.10
2023-02-03T03:15:51.893Z,17.30
2023-02-03T03:18:31.328Z,24.17
2023-02-03T03:21:11.846Z,15.02
2023-02-03T03:23:55.312Z,18.50
2023-02-03T03:26:35.238Z,20.95
2023-02-03T03:29:13.881Z,16.75
2023-02-03T03:31:51.264Z,19.55
2023-02-03T03:34:30.695Z,21.20
2023-02-03T03:37:15.885Z,15.85
2023-02-03T03:39:53.075Z,18.70
2023-02-03T03:42:32.632Z,17.00
2023-02-03T03:45:10.193Z,13.15
2023-02-03T03:47:50.074Z,18.40
2023-02-03T03:50:27.484Z,15.60
2023-02-03T03:53:09.656Z,16.08
2023-02-03T03:55:45.064Z,17.35
2023-02-03T03:58:21.962Z,15.32
2023-02-03T04:01:01.993Z,14.88
2023-02-03T04:03:42.219Z,16.17
2023-02-03T04:06:21.526Z,14.82
2023-02-03T04:08:59.937Z,14.00
2023-02-03T04:11:47.569Z,17.50
2023-02-03T04:14:26.282Z,15.40
2023-02-03T04:17:03.042Z,14.45
2023-02-03T04:19:42.055Z,15.80
2023-02-03T04:22:20.349Z,13.10
2023-02-03T04:24:59.205Z,14.13
2023-02-03T04:27:35.993Z,12.93
2023-02-03T04:30:14.247Z,11.55
2023-02-03T04:32:48.543Z,13.50
2023-02-03T04:35:28.755Z,14.90
2023-02-03T04:38:03.946Z,11.55
2023-02-03T04:40:42.970Z,14.47
2023-02-03T04:43:18.696Z,14.30
2023-02-03T04:45:56.108Z,14.53
2023-02-03T04:48:32.044Z,17.17
2023-02-03T04:51:10.541Z,11.15
2023-02-03T04:53:48.751Z,10.32
2023-02-03T04:56:28.178Z,13.40
2023-02-03T04:59:06.253Z,9.27
2023-02-03T05:01:44.297Z,12.43
2023-02-03T05:04:22.407Z,11.75
2023-02-03T05:06:58.744Z,9.25
2023-02-03T05:09:37.599Z,11.70
2023-02-03T05:12:15.680Z,9.57
2023-02-03T05:14:58.138Z,14.40
2023-02-03T05:17:40.028Z,9.98
2023-02-03T05:20:19.046Z,12.88
2023-02-03T05:22:53.941Z,14.15
2023-02-03T05:25:31.620Z,12.43
2023-02-03T05:30:53.100Z,9.48
2023-02-03T05:33:30.834Z,12.05
2023-02-03T05:36:08.322Z,9.80
2023-02-03T05:38:44.602Z,9.10
2023-02-03T05:41:35.014Z,11.13
2023-02-03T05:44:11.550Z,10.45
2023-02-03T05:46:51.217Z,9.68
2023-02-03T05:49:30.237Z,10.95
2023-02-03T05:52:05.922Z,10.00
2023-02-03T05:54:42.678Z,11.53
2023-02-03T05:57:22.796Z,11.38
2023-02-03T06:00:02.547Z,9.67
2023-02-03T06:02:50.759Z,12.80
2023-02-03T06:05:29.187Z,11.00
2023-02-03T06:08:09.375Z,11.63
2023-02-03T06:10:45.251Z,13.00
2023-02-03T06:13:21.441Z,17.80
2023-02-03T06:18:37.444Z,14.10
2023-02-03T06:21:11.693Z,14.25
2023-02-03T06:23:56.959Z,11.88
2023-02-03T06:26:35.298Z,15.33
2023-02-03T06:29:14.493Z,19.65
2023-02-03T06:31:52.397Z,19.55
2023-02-03T06:34:31.648Z,18.10
2023-02-03T06:37:02.358Z,21.70
2023-02-03T06:39:38.174Z,17.55
2023-02-03T06:42:21.317Z,21.02
2023-02-03T06:45:03.917Z,20.88
2023-02-03T06:47:43.775Z,16.40
2023-02-03T06:50:26.785Z,19.77
2023-02-03T06:53:04.998Z,19.80
2023-02-03T06:55:44.965Z,21.55
2023-02-03T06:58:22.239Z,22.30
2023-02-03T07:01:02.012Z,23.85
2023-02-03T07:03:37.365Z,20.45
2023-02-03T07:06:16.977Z,18.50
2023-02-03T07:08:55.813Z,21.40
2023-02-03T07:11:35.679Z,20.20
2023-02-03T07:14:14.382Z,21.88
2023-02-03T07:16:50.421Z,21.88
2023-02-03T07:19:26.504Z,25.15
2023-02-03T07:25:16.075Z,20.05
2023-02-03T07:46:02.906Z,17.30
2023-02-03T07:55:15.685Z,10.50
2023-02-03T07:57:58.453Z,13.10
2023-02-03T08:00:36.674Z,8.40
2023-02-03T08:06:21.523Z,15.35
2023-02-03T08:09:09.354Z,13.07
2023-02-03T08:11:54.529Z,17.10
2023-02-03T08:14:32.520Z,16.60
2023-02-03T08:17:08.672Z,19.88
2023-02-03T08:19:45.070Z,20.67
2023-02-03T08:22:34.752Z,17.92
2023-02-03T08:25:09.088Z,19.75
2023-02-03T08:27:46.890Z,14.80
2023-02-03T08:30:22.310Z,20.17
2023-02-03T08:33:00.578Z,20.90
2023-02-03T08:35:39.685Z,14.55
2023-02-03T08:38:16.345Z,15.33
2023-02-03T08:43:59.553Z,17.43
2023-02-03T08:46:43.836Z,18.48
2023-02-03T08:49:18.640Z,16.27
2023-02-03T08:51:54.697Z,17.07
2023-02-03T08:54:33.409Z,14.95
2023-02-03T08:57:09.475Z,16.45
2023-02-03T08:59:55.679Z,19.95
2023-02-03T09:02:31.183Z,17.33
2023-02-03T09:05:08.075Z,19.35
2023-02-03T09:07:47.552Z,14.13
2023-02-03T09:10:25.596Z,18.40
2023-02-03T09:13:01.216Z,18.33
2023-02-03T09:15:45.810Z,15.97
2023-02-03T09:18:22.066Z,14.33
2023-02-03T09:20:57.270Z,14.20
2023-02-03T09:23:43.298Z,13.07
2023-02-03T09:26:19.736Z,15.98
2023-02-03T09:28:58.862Z,12.90
2023-02-03T09:31:39.281Z,14.20
2023-02-03T09:34:16.469Z,15.80
2023-02-03T09:36:53.326Z,13.13
2023-02-03T09:39:33.003Z,18.27
2023-02-03T09:42:24.418Z,16.55
2023-02-03T09:45:08.855Z,13.50
2023-02-03T09:47:59.054Z,14.10
2023-02-03T09:50:35.819Z,13.27
2023-02-03T09:53:24.925Z,17.45
2023-02-03T09:56:04.225Z,17.00
2023-02-03T09:58:47.313Z,18.75
2023-02-03T10:01:38.025Z,19.85
2023-02-03T10:07:28.305Z,15.10
2023-02-03T10:10:07.605Z,15.82
2023-02-03T10:13:03.315Z,18.83
2023-02-03T10:15:59.576Z,21.67
2023-02-03T10:18:37.191Z,18.03
2023-02-03T10:21:20.755Z,19.13
2023-02-03T10:24:02.822Z,21.38
2023-02-03T10:26:38.741Z,23.43
2023-02-03T10:29:21.912Z,19.83
2023-02-03T10:31:58.978Z,20.58
2023-02-03T10:34:41.055Z,17.70
2023-02-03T10:37:19.981Z,17.52
2023-02-03T10:40:04.916Z,20.20
2023-02-03T10:42:56.458Z,20.65
2023-02-03T10:45:35.573Z,17.80
2023-02-03T10:48:11.550Z,16.20
2023-02-03T10:50:50.388Z,21.58
2023-02-03T10:53:36.041Z,20.60
2023-02-03T10:56:16.669Z,22.97
2023-02-03T10:58:56.668Z,18.52
2023-02-03T11:01:42.969Z,16.23
2023-02-03T11:04:20.523Z,18.15
2023-02-03T11:07:02.254Z,19.90
2023-02-03T11:12:51.909Z,18.20
2023-02-03T11:30:39.892Z,13.95
2023-02-03T11:33:21.768Z,13.73
2023-02-03T11:39:14.082Z,6.32
2023-02-03T11:41:58.099Z,9.57
2023-02-03T11:44:36.449Z,8.35
2023-02-03T11:47:18.071Z,5.40
2023-02-03T11:53:10.149Z,5.78
2023-02-03T11:55:53.997Z,4.20
2023-02-03T11:58:31.923Z,3.10
2023-02-03T12:01:10.189Z,3.20
2023-02-03T12:04:09.452Z,4.03
2023-02-03T12:07:00.677Z,6.57
2023-02-03T12:09:31.360Z,4.57
2023-02-03T12:12:31.565Z,4.63
2023-02-03T12:18:00.627Z,3.05
2023-02-03T12:20:53.376Z,3.00
2023-02-03T12:23:41.547Z,4.85
2023-02-03T12:26:16.261Z,5.87
2023-02-03T12:28:59.112Z,3.63
2023-02-03T12:31:40.524Z,6.18
2023-02-03T12:34:19.431Z,5.65
2023-02-03T12:36:54.462Z,5.10
2023-02-03T12:39:35.923Z,5.03
2023-02-03T12:42:22.828Z,5.97
2023-02-03T12:45:02.485Z,3.65
2023-02-03T12:47:40.293Z,4.60
2023-02-03T12:50:21.924Z,5.07
2023-02-03T12:53:05.879Z,5.00
2023-02-03T12:55:45.462Z,4.45
2023-02-03T12:58:24.942Z,4.28
2023-02-03T13:01:02.492Z,6.95
2023-02-03T13:03:40.394Z,4.40
2023-02-03T13:06:19.083Z,6.13
2023-02-03T13:08:57.691Z,3.80
2023-02-03T13:14:45.245Z,5.82
2023-02-03T13:17:26.444Z,4.60
2023-02-03T13:20:06.007Z,5.90
2023-02-03T13:22:41.695Z,7.82
2023-02-03T13:25:21.740Z,6.97
2023-02-03T13:28:04.083Z,6.30
2023-02-03T13:30:51.357Z,4.20
2023-02-03T13:33:55.484Z,6.22
2023-02-03T13:36:52.542Z,3.67
2023-02-03T13:42:47.143Z,5.70
2023-02-03T13:48:26.968Z,3.55
2023-02-03T13:57:23.811Z,1.48
2023-02-03T14:00:37.672Z,1.60
2023-02-03T14:03:28.145Z,1.10
2023-02-03T14:09:26.995Z,2.53
2023-02-03T14:12:28.448Z,3.42
2023-02-03T14:15:33.187Z,2.50
2023-02-03T14:24:24.322Z,2.55
2023-02-03T14:48:39.449Z,6.22
2023-02-03T14:51:14.798Z,9.97
2023-02-03T14:53:58.928Z,8.87
2023-02-03T14:56:57.941Z,10.07
2023-02-03T14:59:32.658Z,9.37
2023-02-03T15:02:27.527Z,6.68
2023-02-03T15:05:37.046Z,9.20
2023-02-03T15:08:34.512Z,12.50
2023-02-03T15:59:26.125Z,19.70
2023-02-03T16:02:18.743Z,10.88
2023-02-03T16:07:54.176Z,13.88
2023-02-03T16:13:33.843Z,8.50
2023-02-03T16:16:27.205Z,14.20
2023-02-03T16:22:10.544Z,13.75
2023-02-03T16:24:53.399Z,11.23
2023-02-03T16:28:00.540Z,13.07
2023-02-03T16:30:43.394Z,12.95
2023-02-03T16:36:44.352Z,5.90
2023-02-03T16:45:35.112Z,9.27
2023-02-03T16:48:40.457Z,10.30
2023-02-03T16:54:17.901Z,10.90
2023-02-03T16:56:58.767Z,16.58
2023-02-03T16:59:37.282Z,14.48
2023-02-03T17:05:11.883Z,18.90
2023-02-03T17:07:47.264Z,18.35
2023-02-03T17:10:29.848Z,16.95
2023-02-03T17:16:18.581Z,14.95
2023-02-03T17:18:57.195Z,19.10
2023-02-03T17:21:40.847Z,16.00
2023-02-03T17:24:20.722Z,24.88
2023-02-03T17:27:01.400Z,15.85
2023-02-03T17:29:40.853Z,20.57
2023-02-03T17:32:19.058Z,21.20
2023-02-03T17:34:58.405Z,22.25
2023-02-03T17:37:38.859Z,21.00
2023-02-03T17:55:13.157Z,26.70
2023-02-03T17:57:51.837Z,21.95
2023-02-03T18:00:28.187Z,28.70
2023-02-03T18:03:15.217Z,16.55
2023-02-03T18:05:57.015Z,24.63
2023-02-03T18:08:35.692Z,25.58
2023-02-03T18:11:12.532Z,23.70
2023-02-03T18:13:54.844Z,26.58
2023-02-03T18:16:45.606Z,26.27
2023-02-03T18:22:23.300Z,23.63
2023-02-03T18:25:07.672Z,18.05
2023-02-03T18:27:49.514Z,24.85
2023-02-03T18:30:26.335Z,24.70
2023-02-03T18:33:08.699Z,25.02
2023-02-03T18:35:51.796Z,24.13
2023-02-03T18:38:31.870Z,22.52
2023-02-03T18:41:07.351Z,22.30
2023-02-03T18:43:48.121Z,13.00
2023-02-03T18:46:31.030Z,21.20
2023-02-03T18:49:06.813Z,21.05
2023-02-03T18:51:50.446Z,19.45
2023-02-03T18:54:33.150Z,15.60
2023-02-03T18:57:17.528Z,20.67
2023-02-03T18:59:54.074Z,20.23
2023-02-03T19:02:32.029Z,16.80
2023-02-03T19:05:12.750Z,22.90
2023-02-03T19:07:52.862Z,20.93
2023-02-03T19:10:34.572Z,20.80
2023-02-03T19:13:11.200Z,19.30
2023-02-03T19:15:52.017Z,18.95
2023-02-03T19:18:26.963Z,19.92
2023-02-03T19:21:07.565Z,22.65
2023-02-03T19:23:53.080Z,22.67
2023-02-03T19:26:35.887Z,18.70
2023-02-03T19:29:11.803Z,21.90
2023-02-03T19:34:28.836Z,16.63
2023-02-03T19:40:16.851Z,16.58
2023-02-03T19:42:57.952Z,19.80
2023-02-03T19:45:36.457Z,16.55
2023-02-03T19:48:13.590Z,19.73
2023-02-03T19:50:57.096Z,21.90
2023-02-03T19:53:41.047Z,17.30
2023-02-03T19:56:22.678Z,18.23
2023-02-03T19:59:16.888Z,23.37
2023-02-03T20:02:13.660Z,17.00
2023-02-03T20:05:03.001Z,18.65
2023-02-03T20:07:53.740Z,20.17
